sensor_id;sensor_type;location;lat;lon;timestamp;P1;durP1;ratioP1;P2;durP2;ratioP2
46318;SDS011;32042;50.916;2.926;2023-08-20T00:00:25;5.32;;;1.70;;
46318;SDS011;32042;50.916;2.926;2023-08-20T00:02:51;5.07;;;1.90;;
46318;SDS011;32042;50.916;2.926;2023-08-20T00:05:28;6.80;;;1.75;;
46318;SDS011;32042;50.916;2.926;2023-08-20T00:07:55;3.42;;;1.90;;
46318;SDS011;32042;50.916;2.926;2023-08-20T00:10:20;5.05;;;2.10;;
46318;SDS011;32042;50.916;2.926;2023-08-20T00:12:46;5.40;;;2.05;;
46318;SDS011;32042;50.916;2.926;2023-08-20T00:15:12;6.10;;;1.75;;
46318;SDS011;32042;50.916;2.926;2023-08-20T00:17:38;4.82;;;1.48;;
46318;SDS011;32042;50.916;2.926;2023-08-20T00:20:05;5.68;;;1.73;;
46318;SDS011;32042;50.916;2.926;2023-08-20T00:22:38;5.80;;;1.58;;
46318;SDS011;32042;50.916;2.926;2023-08-20T00:25:04;7.57;;;2.25;;
46318;SDS011;32042;50.916;2.926;2023-08-20T00:27:31;6.70;;;2.05;;
46318;SDS011;32042;50.916;2.926;2023-08-20T00:29:57;8.43;;;1.80;;
46318;SDS011;32042;50.916;2.926;2023-08-20T00:32:23;5.80;;;1.40;;
46318;SDS011;32042;50.916;2.926;2023-08-20T00:34:49;5.10;;;1.80;;
46318;SDS011;32042;50.916;2.926;2023-08-20T00:37:15;7.40;;;2.30;;
46318;SDS011;32042;50.916;2.926;2023-08-20T00:39:41;6.00;;;1.75;;
46318;SDS011;32042;50.916;2.926;2023-08-20T00:42:07;5.85;;;2.33;;
46318;SDS011;32042;50.916;2.926;2023-08-20T00:44:33;8.60;;;1.92;;
46318;SDS011;32042;50.916;2.926;2023-08-20T00:47:00;8.25;;;2.00;;
46318;SDS011;32042;50.916;2.926;2023-08-20T00:49:28;4.63;;;1.73;;
46318;SDS011;32042;50.916;2.926;2023-08-20T00:51:54;6.82;;;1.70;;
46318;SDS011;32042;50.916;2.926;2023-08-20T00:54:21;4.95;;;1.77;;
46318;SDS011;32042;50.916;2.926;2023-08-20T00:56:48;3.63;;;1.83;;
46318;SDS011;32042;50.916;2.926;2023-08-20T00:59:15;6.40;;;2.25;;
46318;SDS011;32042;50.916;2.926;2023-08-20T01:01:42;6.43;;;1.92;;
46318;SDS011;32042;50.916;2.926;2023-08-20T01:04:08;3.53;;;1.58;;
46318;SDS011;32042;50.916;2.926;2023-08-20T01:09:24;7.60;;;1.95;;
46318;SDS011;32042;50.916;2.926;2023-08-20T01:11:56;9.10;;;1.98;;
46318;SDS011;32042;50.916;2.926;2023-08-20T01:14:24;6.68;;;1.85;;
46318;SDS011;32042;50.916;2.926;2023-08-20T01:16:50;3.17;;;1.48;;
46318;SDS011;32042;50.916;2.926;2023-08-20T01:19:17;6.00;;;2.55;;
46318;SDS011;32042;50.916;2.926;2023-08-20T01:21:53;7.13;;;1.92;;
46318;SDS011;32042;50.916;2.926;2023-08-20T01:29:58;5.90;;;2.20;;
46318;SDS011;32042;50.916;2.926;2023-08-20T01:32:25;8.82;;;2.42;;
46318;SDS011;32042;50.916;2.926;2023-08-20T01:34:52;7.03;;;2.10;;
46318;SDS011;32042;50.916;2.926;2023-08-20T01:37:19;7.72;;;2.10;;
46318;SDS011;32042;50.916;2.926;2023-08-20T01:39:44;12.25;;;2.22;;
46318;SDS011;32042;50.916;2.926;2023-08-20T01:42:10;6.57;;;2.50;;
46318;SDS011;32042;50.916;2.926;2023-08-20T01:44:36;8.48;;;2.40;;
46318;SDS011;32042;50.916;2.926;2023-08-20T01:47:02;6.47;;;2.30;;
46318;SDS011;32042;50.916;2.926;2023-08-20T01:49:28;5.15;;;2.22;;
46318;SDS011;32042;50.916;2.926;2023-08-20T01:51:53;9.15;;;2.55;;
46318;SDS011;32042;50.916;2.926;2023-08-20T01:54:19;4.25;;;2.13;;
46318;SDS011;32042;50.916;2.926;2023-08-20T01:56:45;5.88;;;2.40;;
46318;SDS011;32042;50.916;2.926;2023-08-20T01:59:11;5.78;;;2.38;;
46318;SDS011;32042;50.916;2.926;2023-08-20T02:01:37;6.55;;;2.75;;
46318;SDS011;32042;50.916;2.926;2023-08-20T02:04:03;6.68;;;1.88;;
46318;SDS011;32042;50.916;2.926;2023-08-20T02:06:29;7.38;;;2.35;;
46318;SDS011;32042;50.916;2.926;2023-08-20T02:08:54;6.07;;;2.22;;
46318;SDS011;32042;50.916;2.926;2023-08-20T02:11:20;5.00;;;2.58;;
46318;SDS011;32042;50.916;2.926;2023-08-20T02:13:46;6.30;;;2.10;;
46318;SDS011;32042;50.916;2.926;2023-08-20T02:16:11;5.35;;;2.05;;
46318;SDS011;32042;50.916;2.926;2023-08-20T02:18:37;7.05;;;2.00;;
46318;SDS011;32042;50.916;2.926;2023-08-20T02:21:03;6.60;;;2.28;;
46318;SDS011;32042;50.916;2.926;2023-08-20T02:23:29;6.13;;;2.03;;
46318;SDS011;32042;50.916;2.926;2023-08-20T02:25:54;5.20;;;2.42;;
46318;SDS011;32042;50.916;2.926;2023-08-20T02:28:20;5.28;;;2.83;;
46318;SDS011;32042;50.916;2.926;2023-08-20T02:30:46;8.48;;;2.67;;
46318;SDS011;32042;50.916;2.926;2023-08-20T02:33:13;3.83;;;2.15;;
46318;SDS011;32042;50.916;2.926;2023-08-20T02:35:40;7.72;;;2.80;;
46318;SDS011;32042;50.916;2.926;2023-08-20T02:38:06;7.95;;;2.58;;
46318;SDS011;32042;50.916;2.926;2023-08-20T02:40:39;4.82;;;2.20;;
46318;SDS011;32042;50.916;2.926;2023-08-20T02:43:06;4.57;;;2.25;;
46318;SDS011;32042;50.916;2.926;2023-08-20T02:45:39;8.43;;;2.47;;
46318;SDS011;32042;50.916;2.926;2023-08-20T02:48:07;6.00;;;2.40;;
46318;SDS011;32042;50.916;2.926;2023-08-20T02:50:34;4.05;;;1.88;;
46318;SDS011;32042;50.916;2.926;2023-08-20T02:53:00;6.05;;;2.63;;
46318;SDS011;32042;50.916;2.926;2023-08-20T02:55:28;8.32;;;2.30;;
46318;SDS011;32042;50.916;2.926;2023-08-20T02:57:55;5.35;;;2.47;;
46318;SDS011;32042;50.916;2.926;2023-08-20T03:00:20;4.63;;;2.05;;
46318;SDS011;32042;50.916;2.926;2023-08-20T03:02:46;9.35;;;2.70;;
46318;SDS011;32042;50.916;2.926;2023-08-20T03:05:12;5.07;;;2.40;;
46318;SDS011;32042;50.916;2.926;2023-08-20T03:07:37;4.07;;;2.10;;
46318;SDS011;32042;50.916;2.926;2023-08-20T03:10:03;10.40;;;2.30;;
46318;SDS011;32042;50.916;2.926;2023-08-20T03:12:29;4.28;;;2.38;;
46318;SDS011;32042;50.916;2.926;2023-08-20T03:14:55;5.43;;;2.33;;
46318;SDS011;32042;50.916;2.926;2023-08-20T03:17:21;6.40;;;2.53;;
46318;SDS011;32042;50.916;2.926;2023-08-20T03:19:57;7.60;;;2.80;;
46318;SDS011;32042;50.916;2.926;2023-08-20T03:22:24;8.32;;;2.30;;
46318;SDS011;32042;50.916;2.926;2023-08-20T03:24:51;8.02;;;2.80;;
46318;SDS011;32042;50.916;2.926;2023-08-20T03:27:17;7.50;;;3.03;;
46318;SDS011;32042;50.916;2.926;2023-08-20T03:29:44;7.35;;;2.97;;
46318;SDS011;32042;50.916;2.926;2023-08-20T03:32:10;4.63;;;2.83;;
46318;SDS011;32042;50.916;2.926;2023-08-20T03:34:36;6.72;;;2.75;;
46318;SDS011;32042;50.916;2.926;2023-08-20T03:37:02;5.18;;;2.45;;
46318;SDS011;32042;50.916;2.926;2023-08-20T03:39:29;6.15;;;3.03;;
46318;SDS011;32042;50.916;2.926;2023-08-20T03:41:56;7.30;;;2.70;;
46318;SDS011;32042;50.916;2.926;2023-08-20T03:44:22;5.88;;;3.22;;
46318;SDS011;32042;50.916;2.926;2023-08-20T03:46:48;8.27;;;3.70;;
46318;SDS011;32042;50.916;2.926;2023-08-20T03:49:14;8.40;;;2.67;;
46318;SDS011;32042;50.916;2.926;2023-08-20T03:51:40;8.57;;;3.38;;
46318;SDS011;32042;50.916;2.926;2023-08-20T03:54:07;9.57;;;3.20;;
46318;SDS011;32042;50.916;2.926;2023-08-20T03:56:33;6.70;;;2.80;;
46318;SDS011;32042;50.916;2.926;2023-08-20T03:58:59;3.70;;;2.15;;
46318;SDS011;32042;50.916;2.926;2023-08-20T04:01:25;7.20;;;3.05;;
46318;SDS011;32042;50.916;2.926;2023-08-20T04:03:51;5.50;;;2.40;;
46318;SDS011;32042;50.916;2.926;2023-08-20T04:06:16;6.97;;;2.53;;
46318;SDS011;32042;50.916;2.926;2023-08-20T04:08:42;5.50;;;2.50;;
46318;SDS011;32042;50.916;2.926;2023-08-20T04:11:08;6.10;;;3.05;;
46318;SDS011;32042;50.916;2.926;2023-08-20T04:13:34;3.70;;;2.58;;
46318;SDS011;32042;50.916;2.926;2023-08-20T04:15:59;3.63;;;2.75;;
46318;SDS011;32042;50.916;2.926;2023-08-20T04:18:25;3.80;;;2.45;;
46318;SDS011;32042;50.916;2.926;2023-08-20T04:20:51;5.68;;;2.70;;
46318;SDS011;32042;50.916;2.926;2023-08-20T04:23:18;6.07;;;2.40;;
46318;SDS011;32042;50.916;2.926;2023-08-20T04:25:44;5.43;;;2.63;;
46318;SDS011;32042;50.916;2.926;2023-08-20T04:28:11;7.30;;;3.30;;
46318;SDS011;32042;50.916;2.926;2023-08-20T04:30:37;7.63;;;2.63;;
46318;SDS011;32042;50.916;2.926;2023-08-20T04:33:03;4.72;;;3.00;;
46318;SDS011;32042;50.916;2.926;2023-08-20T04:35:29;6.22;;;2.55;;
46318;SDS011;32042;50.916;2.926;2023-08-20T04:37:55;5.07;;;2.58;;
46318;SDS011;32042;50.916;2.926;2023-08-20T04:40:21;3.97;;;2.67;;
46318;SDS011;32042;50.916;2.926;2023-08-20T04:42:48;10.82;;;3.08;;
46318;SDS011;32042;50.916;2.926;2023-08-20T04:45:14;12.23;;;4.30;;
46318;SDS011;32042;50.916;2.926;2023-08-20T04:47:42;4.32;;;2.85;;
46318;SDS011;32042;50.916;2.926;2023-08-20T04:50:08;6.32;;;3.10;;
46318;SDS011;32042;50.916;2.926;2023-08-20T04:52:34;10.00;;;3.10;;
46318;SDS011;32042;50.916;2.926;2023-08-20T04:55:03;8.35;;;3.15;;
46318;SDS011;32042;50.916;2.926;2023-08-20T04:57:28;10.38;;;3.30;;
46318;SDS011;32042;50.916;2.926;2023-08-20T04:59:54;9.85;;;2.85;;
46318;SDS011;32042;50.916;2.926;2023-08-20T05:02:20;10.95;;;3.92;;
46318;SDS011;32042;50.916;2.926;2023-08-20T05:04:46;14.43;;;3.67;;
46318;SDS011;32042;50.916;2.926;2023-08-20T05:07:11;11.80;;;4.35;;
46318;SDS011;32042;50.916;2.926;2023-08-20T05:09:37;6.00;;;3.08;;
46318;SDS011;32042;50.916;2.926;2023-08-20T05:12:03;8.70;;;3.50;;
46318;SDS011;32042;50.916;2.926;2023-08-20T05:14:29;6.18;;;3.53;;
46318;SDS011;32042;50.916;2.926;2023-08-20T05:16:56;7.82;;;3.50;;
46318;SDS011;32042;50.916;2.926;2023-08-20T05:19:21;7.85;;;4.63;;
46318;SDS011;32042;50.916;2.926;2023-08-20T05:21:47;10.70;;;3.63;;
46318;SDS011;32042;50.916;2.926;2023-08-20T05:24:13;6.45;;;3.05;;
46318;SDS011;32042;50.916;2.926;2023-08-20T05:26:38;9.07;;;3.42;;
46318;SDS011;32042;50.916;2.926;2023-08-20T05:29:04;9.38;;;3.78;;
46318;SDS011;32042;50.916;2.926;2023-08-20T05:31:30;8.43;;;3.30;;
46318;SDS011;32042;50.916;2.926;2023-08-20T05:33:56;6.47;;;3.17;;
46318;SDS011;32042;50.916;2.926;2023-08-20T05:36:22;7.82;;;4.03;;
46318;SDS011;32042;50.916;2.926;2023-08-20T05:38:48;7.38;;;3.40;;
46318;SDS011;32042;50.916;2.926;2023-08-20T05:41:14;5.55;;;3.55;;
46318;SDS011;32042;50.916;2.926;2023-08-20T05:43:40;11.07;;;3.88;;
46318;SDS011;32042;50.916;2.926;2023-08-20T05:46:06;10.82;;;3.60;;
46318;SDS011;32042;50.916;2.926;2023-08-20T05:48:31;7.78;;;4.15;;
46318;SDS011;32042;50.916;2.926;2023-08-20T05:50:57;7.35;;;3.47;;
46318;SDS011;32042;50.916;2.926;2023-08-20T05:53:23;7.82;;;3.40;;
46318;SDS011;32042;50.916;2.926;2023-08-20T05:55:49;9.15;;;3.80;;
46318;SDS011;32042;50.916;2.926;2023-08-20T05:58:14;6.80;;;3.88;;
46318;SDS011;32042;50.916;2.926;2023-08-20T06:00:40;9.10;;;3.42;;
46318;SDS011;32042;50.916;2.926;2023-08-20T06:03:06;6.88;;;4.00;;
46318;SDS011;32042;50.916;2.926;2023-08-20T06:05:35;12.07;;;3.92;;
46318;SDS011;32042;50.916;2.926;2023-08-20T06:08:01;11.60;;;4.40;;
46318;SDS011;32042;50.916;2.926;2023-08-20T06:10:27;12.57;;;4.55;;
46318;SDS011;32042;50.916;2.926;2023-08-20T06:12:53;11.40;;;4.30;;
46318;SDS011;32042;50.916;2.926;2023-08-20T06:15:19;7.28;;;4.30;;
46318;SDS011;32042;50.916;2.926;2023-08-20T06:17:44;9.65;;;4.10;;
46318;SDS011;32042;50.916;2.926;2023-08-20T06:20:10;10.55;;;4.63;;
46318;SDS011;32042;50.916;2.926;2023-08-20T06:22:37;10.27;;;4.60;;
46318;SDS011;32042;50.916;2.926;2023-08-20T06:25:03;14.13;;;4.60;;
46318;SDS011;32042;50.916;2.926;2023-08-20T06:27:30;11.10;;;3.80;;
46318;SDS011;32042;50.916;2.926;2023-08-20T06:29:56;10.45;;;4.35;;
46318;SDS011;32042;50.916;2.926;2023-08-20T06:32:23;7.05;;;3.95;;
46318;SDS011;32042;50.916;2.926;2023-08-20T06:34:49;15.57;;;4.28;;
46318;SDS011;32042;50.916;2.926;2023-08-20T06:37:15;14.50;;;4.65;;
46318;SDS011;32042;50.916;2.926;2023-08-20T06:39:40;10.43;;;4.47;;
46318;SDS011;32042;50.916;2.926;2023-08-20T06:42:06;13.77;;;3.95;;
46318;SDS011;32042;50.916;2.926;2023-08-20T06:44:32;9.43;;;3.75;;
46318;SDS011;32042;50.916;2.926;2023-08-20T06:47:00;6.63;;;4.25;;
46318;SDS011;32042;50.916;2.926;2023-08-20T06:49:26;13.10;;;4.47;;
46318;SDS011;32042;50.916;2.926;2023-08-20T06:51:51;10.15;;;4.07;;
46318;SDS011;32042;50.916;2.926;2023-08-20T06:54:17;12.00;;;4.25;;
46318;SDS011;32042;50.916;2.926;2023-08-20T06:56:43;8.57;;;3.05;;
46318;SDS011;32042;50.916;2.926;2023-08-20T06:59:09;10.80;;;3.30;;
46318;SDS011;32042;50.916;2.926;2023-08-20T07:01:35;7.97;;;3.05;;
46318;SDS011;32042;50.916;2.926;2023-08-20T07:04:01;9.35;;;3.13;;
46318;SDS011;32042;50.916;2.926;2023-08-20T07:06:27;6.70;;;3.40;;
46318;SDS011;32042;50.916;2.926;2023-08-20T07:08:53;7.68;;;3.42;;
46318;SDS011;32042;50.916;2.926;2023-08-20T07:11:19;7.90;;;2.88;;
46318;SDS011;32042;50.916;2.926;2023-08-20T07:13:44;11.02;;;3.10;;
46318;SDS011;32042;50.916;2.926;2023-08-20T07:16:10;10.98;;;3.10;;
46318;SDS011;32042;50.916;2.926;2023-08-20T07:18:36;9.77;;;3.05;;
46318;SDS011;32042;50.916;2.926;2023-08-20T07:21:02;11.25;;;3.47;;
46318;SDS011;32042;50.916;2.926;2023-08-20T07:23:28;4.65;;;2.85;;
46318;SDS011;32042;50.916;2.926;2023-08-20T07:26:03;7.15;;;2.97;;
46318;SDS011;32042;50.916;2.926;2023-08-20T07:28:30;7.25;;;3.60;;
46318;SDS011;32042;50.916;2.926;2023-08-20T07:31:15;6.13;;;2.75;;
46318;SDS011;32042;50.916;2.926;2023-08-20T07:33:40;9.63;;;2.85;;
46318;SDS011;32042;50.916;2.926;2023-08-20T07:36:06;11.40;;;3.55;;
46318;SDS011;32042;50.916;2.926;2023-08-20T07:38:32;11.80;;;3.75;;
46318;SDS011;32042;50.916;2.926;2023-08-20T07:40:57;7.68;;;3.13;;
46318;SDS011;32042;50.916;2.926;2023-08-20T07:43:24;7.93;;;2.75;;
46318;SDS011;32042;50.916;2.926;2023-08-20T07:45:49;8.20;;;2.55;;
46318;SDS011;32042;50.916;2.926;2023-08-20T07:48:15;7.68;;;2.97;;
46318;SDS011;32042;50.916;2.926;2023-08-20T07:50:42;7.38;;;2.22;;
46318;SDS011;32042;50.916;2.926;2023-08-20T07:53:07;5.15;;;2.63;;
46318;SDS011;32042;50.916;2.926;2023-08-20T07:55:33;3.08;;;1.85;;
46318;SDS011;32042;50.916;2.926;2023-08-20T07:57:59;5.63;;;2.03;;
46318;SDS011;32042;50.916;2.926;2023-08-20T08:00:24;5.38;;;1.95;;
46318;SDS011;32042;50.916;2.926;2023-08-20T08:02:50;4.30;;;2.13;;
46318;SDS011;32042;50.916;2.926;2023-08-20T08:05:16;6.20;;;2.20;;
46318;SDS011;32042;50.916;2.926;2023-08-20T08:07:42;3.55;;;2.08;;
46318;SDS011;32042;50.916;2.926;2023-08-20T08:10:07;6.93;;;2.20;;
46318;SDS011;32042;50.916;2.926;2023-08-20T08:12:33;7.45;;;1.63;;
46318;SDS011;32042;50.916;2.926;2023-08-20T08:14:59;6.22;;;1.95;;
46318;SDS011;32042;50.916;2.926;2023-08-20T08:17:25;4.13;;;1.35;;
46318;SDS011;32042;50.916;2.926;2023-08-20T08:19:51;5.20;;;1.58;;
46318;SDS011;32042;50.916;2.926;2023-08-20T08:22:19;4.75;;;1.50;;
46318;SDS011;32042;50.916;2.926;2023-08-20T08:24:44;4.38;;;1.77;;
46318;SDS011;32042;50.916;2.926;2023-08-20T08:27:10;4.93;;;1.35;;
46318;SDS011;32042;50.916;2.926;2023-08-20T08:29:36;6.95;;;1.50;;
46318;SDS011;32042;50.916;2.926;2023-08-20T08:32:02;4.63;;;1.63;;
46318;SDS011;32042;50.916;2.926;2023-08-20T08:34:27;3.92;;;1.10;;
46318;SDS011;32042;50.916;2.926;2023-08-20T08:36:53;5.05;;;1.00;;
46318;SDS011;32042;50.916;2.926;2023-08-20T08:39:19;4.47;;;0.88;;
46318;SDS011;32042;50.916;2.926;2023-08-20T08:41:44;2.22;;;0.73;;
46318;SDS011;32042;50.916;2.926;2023-08-20T08:44:15;1.08;;;0.52;;
46318;SDS011;32042;50.916;2.926;2023-08-20T08:46:42;3.25;;;1.00;;
46318;SDS011;32042;50.916;2.926;2023-08-20T08:49:08;6.65;;;1.10;;
46318;SDS011;32042;50.916;2.926;2023-08-20T08:51:34;2.85;;;0.93;;
46318;SDS011;32042;50.916;2.926;2023-08-20T08:54:02;3.13;;;0.73;;
46318;SDS011;32042;50.916;2.926;2023-08-20T08:56:28;1.63;;;0.75;;
46318;SDS011;32042;50.916;2.926;2023-08-20T08:58:54;2.30;;;0.85;;
46318;SDS011;32042;50.916;2.926;2023-08-20T09:01:20;2.10;;;0.70;;
46318;SDS011;32042;50.916;2.926;2023-08-20T09:03:46;2.35;;;0.70;;
46318;SDS011;32042;50.916;2.926;2023-08-20T09:06:12;2.25;;;0.43;;
46318;SDS011;32042;50.916;2.926;2023-08-20T09:08:38;2.13;;;0.80;;
46318;SDS011;32042;50.916;2.926;2023-08-20T09:11:03;3.13;;;0.90;;
46318;SDS011;32042;50.916;2.926;2023-08-20T09:13:33;1.98;;;0.80;;
46318;SDS011;32042;50.916;2.926;2023-08-20T09:16:05;3.38;;;0.80;;
46318;SDS011;32042;50.916;2.926;2023-08-20T09:18:32;3.72;;;1.00;;
46318;SDS011;32042;50.916;2.926;2023-08-20T09:21:11;3.60;;;1.20;;
46318;SDS011;32042;50.916;2.926;2023-08-20T09:23:39;5.07;;;1.00;;
46318;SDS011;32042;50.916;2.926;2023-08-20T09:26:05;2.80;;;0.82;;
46318;SDS011;32042;50.916;2.926;2023-08-20T09:28:42;2.92;;;0.70;;
46318;SDS011;32042;50.916;2.926;2023-08-20T09:31:08;3.08;;;0.85;;
46318;SDS011;32042;50.916;2.926;2023-08-20T09:33:34;5.13;;;1.00;;
46318;SDS011;32042;50.916;2.926;2023-08-20T09:36:00;1.65;;;0.90;;
46318;SDS011;32042;50.916;2.926;2023-08-20T09:38:29;4.88;;;1.00;;
46318;SDS011;32042;50.916;2.926;2023-08-20T09:40:54;2.38;;;0.85;;
46318;SDS011;32042;50.916;2.926;2023-08-20T09:43:24;2.75;;;0.93;;
46318;SDS011;32042;50.916;2.926;2023-08-20T09:45:54;2.70;;;0.80;;
46318;SDS011;32042;50.916;2.926;2023-08-20T09:48:24;3.05;;;1.00;;
46318;SDS011;32042;50.916;2.926;2023-08-20T09:50:52;2.60;;;0.90;;
46318;SDS011;32042;50.916;2.926;2023-08-20T09:53:37;4.50;;;1.30;;
46318;SDS011;32042;50.916;2.926;2023-08-20T09:56:26;5.95;;;1.08;;
46318;SDS011;32042;50.916;2.926;2023-08-20T09:58:57;2.28;;;0.98;;
46318;SDS011;32042;50.916;2.926;2023-08-20T10:01:23;2.00;;;1.00;;
46318;SDS011;32042;50.916;2.926;2023-08-20T10:03:50;3.90;;;1.13;;
46318;SDS011;32042;50.916;2.926;2023-08-20T10:06:16;3.13;;;0.90;;
46318;SDS011;32042;50.916;2.926;2023-08-20T10:08:43;3.65;;;0.93;;
46318;SDS011;32042;50.916;2.926;2023-08-20T10:11:11;1.85;;;0.60;;
46318;SDS011;32042;50.916;2.926;2023-08-20T10:13:37;2.33;;;0.70;;
46318;SDS011;32042;50.916;2.926;2023-08-20T10:16:03;2.25;;;0.80;;
46318;SDS011;32042;50.916;2.926;2023-08-20T10:18:29;4.07;;;0.85;;
46318;SDS011;32042;50.916;2.926;2023-08-20T10:20:57;1.88;;;0.75;;
46318;SDS011;32042;50.916;2.926;2023-08-20T10:23:24;5.13;;;1.20;;
46318;SDS011;32042;50.916;2.926;2023-08-20T10:25:51;2.67;;;0.60;;
46318;SDS011;32042;50.916;2.926;2023-08-20T10:33:35;3.50;;;1.33;;
46318;SDS011;32042;50.916;2.926;2023-08-20T10:36:16;3.33;;;0.85;;
46318;SDS011;32042;50.916;2.926;2023-08-20T10:38:46;3.70;;;1.15;;
46318;SDS011;32042;50.916;2.926;2023-08-20T10:41:12;3.00;;;0.88;;
46318;SDS011;32042;50.916;2.926;2023-08-20T10:43:40;3.42;;;0.80;;
46318;SDS011;32042;50.916;2.926;2023-08-20T10:46:21;3.55;;;0.90;;
46318;SDS011;32042;50.916;2.926;2023-08-20T10:51:18;4.63;;;0.88;;
46318;SDS011;32042;50.916;2.926;2023-08-20T10:59:15;3.95;;;0.95;;
46318;SDS011;32042;50.916;2.926;2023-08-20T11:01:46;2.47;;;0.75;;
46318;SDS011;32042;50.916;2.926;2023-08-20T11:04:14;3.97;;;0.80;;
46318;SDS011;32042;50.916;2.926;2023-08-20T11:06:41;2.95;;;0.70;;
46318;SDS011;32042;50.916;2.926;2023-08-20T11:09:07;2.63;;;0.80;;
46318;SDS011;32042;50.916;2.926;2023-08-20T11:11:33;3.00;;;0.70;;
46318;SDS011;32042;50.916;2.926;2023-08-20T11:14:05;9.52;;;1.08;;
46318;SDS011;32042;50.916;2.926;2023-08-20T11:16:32;5.25;;;1.08;;
46318;SDS011;32042;50.916;2.926;2023-08-20T11:18:59;2.40;;;0.70;;
46318;SDS011;32042;50.916;2.926;2023-08-20T11:21:25;3.95;;;1.02;;
46318;SDS011;32042;50.916;2.926;2023-08-20T11:23:51;2.40;;;1.10;;
46318;SDS011;32042;50.916;2.926;2023-08-20T11:26:17;1.98;;;0.80;;
46318;SDS011;32042;50.916;2.926;2023-08-20T11:28:46;4.93;;;0.93;;
46318;SDS011;32042;50.916;2.926;2023-08-20T11:31:12;3.35;;;0.80;;
46318;SDS011;32042;50.916;2.926;2023-08-20T11:33:38;1.88;;;0.60;;
46318;SDS011;32042;50.916;2.926;2023-08-20T11:36:05;1.83;;;0.80;;
46318;SDS011;32042;50.916;2.926;2023-08-20T11:38:31;3.42;;;0.85;;
46318;SDS011;32042;50.916;2.926;2023-08-20T11:40:57;6.38;;;1.60;;
46318;SDS011;32042;50.916;2.926;2023-08-20T11:43:25;3.40;;;0.93;;
46318;SDS011;32042;50.916;2.926;2023-08-20T11:45:55;3.63;;;0.90;;
46318;SDS011;32042;50.916;2.926;2023-08-20T11:48:21;1.70;;;0.73;;
46318;SDS011;32042;50.916;2.926;2023-08-20T11:50:47;3.60;;;1.30;;
46318;SDS011;32042;50.916;2.926;2023-08-20T11:53:15;2.58;;;0.70;;
46318;SDS011;32042;50.916;2.926;2023-08-20T11:55:45;1.52;;;0.70;;
46318;SDS011;32042;50.916;2.926;2023-08-20T11:58:11;2.63;;;1.05;;
46318;SDS011;32042;50.916;2.926;2023-08-20T12:00:37;2.97;;;0.88;;
46318;SDS011;32042;50.916;2.926;2023-08-20T12:03:04;3.50;;;0.98;;
46318;SDS011;32042;50.916;2.926;2023-08-20T12:05:30;2.83;;;0.95;;
46318;SDS011;32042;50.916;2.926;2023-08-20T12:07:57;4.45;;;0.70;;
46318;SDS011;32042;50.916;2.926;2023-08-20T12:10:24;1.65;;;0.80;;
46318;SDS011;32042;50.916;2.926;2023-08-20T12:12:54;2.72;;;0.63;;
46318;SDS011;32042;50.916;2.926;2023-08-20T12:15:21;4.05;;;0.73;;
46318;SDS011;32042;50.916;2.926;2023-08-20T12:18:00;3.10;;;0.68;;
46318;SDS011;32042;50.916;2.926;2023-08-20T12:20:30;3.65;;;0.80;;
46318;SDS011;32042;50.916;2.926;2023-08-20T12:22:58;4.15;;;0.88;;
46318;SDS011;32042;50.916;2.926;2023-08-20T12:25:26;4.30;;;0.90;;
46318;SDS011;32042;50.916;2.926;2023-08-20T12:27:54;2.40;;;0.70;;
46318;SDS011;32042;50.916;2.926;2023-08-20T12:30:21;5.18;;;1.10;;
46318;SDS011;32042;50.916;2.926;2023-08-20T12:32:47;4.15;;;1.10;;
46318;SDS011;32042;50.916;2.926;2023-08-20T12:35:13;4.80;;;0.85;;
46318;SDS011;32042;50.916;2.926;2023-08-20T12:37:38;2.60;;;0.85;;
46318;SDS011;32042;50.916;2.926;2023-08-20T12:40:05;1.25;;;0.60;;
46318;SDS011;32042;50.916;2.926;2023-08-20T12:42:35;3.08;;;0.88;;
46318;SDS011;32042;50.916;2.926;2023-08-20T12:45:03;3.88;;;0.80;;
46318;SDS011;32042;50.916;2.926;2023-08-20T12:47:30;2.45;;;0.57;;
46318;SDS011;32042;50.916;2.926;2023-08-20T12:49:55;1.98;;;0.90;;
46318;SDS011;32042;50.916;2.926;2023-08-20T12:52:21;5.22;;;0.90;;
46318;SDS011;32042;50.916;2.926;2023-08-20T12:54:47;2.70;;;0.90;;
46318;SDS011;32042;50.916;2.926;2023-08-20T12:57:12;3.50;;;0.77;;
46318;SDS011;32042;50.916;2.926;2023-08-20T12:59:38;3.28;;;0.75;;
46318;SDS011;32042;50.916;2.926;2023-08-20T13:02:04;2.97;;;0.90;;
46318;SDS011;32042;50.916;2.926;2023-08-20T13:04:30;6.65;;;1.10;;
46318;SDS011;32042;50.916;2.926;2023-08-20T13:06:56;4.43;;;1.20;;
46318;SDS011;32042;50.916;2.926;2023-08-20T13:09:22;4.70;;;1.08;;
46318;SDS011;32042;50.916;2.926;2023-08-20T13:11:48;2.38;;;0.75;;
46318;SDS011;32042;50.916;2.926;2023-08-20T13:14:14;4.82;;;1.88;;
46318;SDS011;32042;50.916;2.926;2023-08-20T13:16:40;4.60;;;1.98;;
46318;SDS011;32042;50.916;2.926;2023-08-20T13:19:06;6.75;;;2.47;;
46318;SDS011;32042;50.916;2.926;2023-08-20T13:21:32;8.82;;;1.80;;
46318;SDS011;32042;50.916;2.926;2023-08-20T13:23:58;5.97;;;2.00;;
46318;SDS011;32042;50.916;2.926;2023-08-20T13:26:24;6.18;;;1.90;;
46318;SDS011;32042;50.916;2.926;2023-08-20T13:28:49;7.90;;;2.03;;
46318;SDS011;32042;50.916;2.926;2023-08-20T13:31:15;4.97;;;1.65;;
46318;SDS011;32042;50.916;2.926;2023-08-20T13:33:41;6.47;;;2.50;;
46318;SDS011;32042;50.916;2.926;2023-08-20T13:36:07;6.70;;;1.88;;
46318;SDS011;32042;50.916;2.926;2023-08-20T13:38:32;6.75;;;1.40;;
46318;SDS011;32042;50.916;2.926;2023-08-20T13:40:58;4.78;;;1.50;;
46318;SDS011;32042;50.916;2.926;2023-08-20T13:43:24;3.50;;;1.60;;
46318;SDS011;32042;50.916;2.926;2023-08-20T13:45:49;5.28;;;1.88;;
46318;SDS011;32042;50.916;2.926;2023-08-20T13:48:15;5.47;;;1.42;;
46318;SDS011;32042;50.916;2.926;2023-08-20T13:50:41;3.65;;;1.50;;
46318;SDS011;32042;50.916;2.926;2023-08-20T13:53:07;4.30;;;1.80;;
46318;SDS011;32042;50.916;2.926;2023-08-20T13:55:33;4.20;;;1.73;;
46318;SDS011;32042;50.916;2.926;2023-08-20T13:57:59;6.53;;;1.60;;
46318;SDS011;32042;50.916;2.926;2023-08-20T14:00:24;4.43;;;1.63;;
46318;SDS011;32042;50.916;2.926;2023-08-20T14:02:50;4.95;;;1.52;;
46318;SDS011;32042;50.916;2.926;2023-08-20T14:05:16;4.00;;;1.20;;
46318;SDS011;32042;50.916;2.926;2023-08-20T14:07:43;4.35;;;1.60;;
46318;SDS011;32042;50.916;2.926;2023-08-20T14:10:09;5.18;;;1.75;;
46318;SDS011;32042;50.916;2.926;2023-08-20T14:12:35;5.55;;;2.10;;
46318;SDS011;32042;50.916;2.926;2023-08-20T14:15:00;3.45;;;1.27;;
46318;SDS011;32042;50.916;2.926;2023-08-20T14:17:27;5.38;;;1.33;;
46318;SDS011;32042;50.916;2.926;2023-08-20T14:19:52;5.70;;;1.27;;
46318;SDS011;32042;50.916;2.926;2023-08-20T14:22:18;9.50;;;1.70;;
46318;SDS011;32042;50.916;2.926;2023-08-20T14:24:44;4.95;;;1.30;;
46318;SDS011;32042;50.916;2.926;2023-08-20T14:27:10;5.88;;;1.80;;
46318;SDS011;32042;50.916;2.926;2023-08-20T14:29:36;5.88;;;1.40;;
46318;SDS011;32042;50.916;2.926;2023-08-20T14:32:02;5.13;;;1.60;;
46318;SDS011;32042;50.916;2.926;2023-08-20T14:34:27;3.15;;;1.27;;
46318;SDS011;32042;50.916;2.926;2023-08-20T14:36:53;3.22;;;1.38;;
46318;SDS011;32042;50.916;2.926;2023-08-20T14:39:19;5.32;;;1.50;;
46318;SDS011;32042;50.916;2.926;2023-08-20T14:41:44;3.85;;;1.50;;
46318;SDS011;32042;50.916;2.926;2023-08-20T14:44:10;3.97;;;1.45;;
46318;SDS011;32042;50.916;2.926;2023-08-20T14:46:36;3.78;;;1.33;;
46318;SDS011;32042;50.916;2.926;2023-08-20T14:49:03;3.45;;;1.25;;
46318;SDS011;32042;50.916;2.926;2023-08-20T14:51:29;3.25;;;1.40;;
46318;SDS011;32042;50.916;2.926;2023-08-20T14:53:54;4.10;;;1.30;;
46318;SDS011;32042;50.916;2.926;2023-08-20T14:56:20;4.45;;;1.30;;
46318;SDS011;32042;50.916;2.926;2023-08-20T14:58:46;3.90;;;1.23;;
46318;SDS011;32042;50.916;2.926;2023-08-20T15:01:12;4.72;;;1.27;;
46318;SDS011;32042;50.916;2.926;2023-08-20T15:03:37;5.65;;;1.30;;